Time;durP1;ratioP1;P1;durP2;ratioP2;P2;SDS_P1;SDS_P2;PMS_P1;PMS_P2;Temp;Humidity;BMP_temperature;BMP_pressure;BME280_temperature;BME280_humidity;BME280_pressure;Samples;Min_cycle;Max_cycle;Signal;HPM_P1;HPM_P2
2023/11/17 00:01:29;;;;;;;34.87;32.67;;;4.40;84.60;;;;;;5057799;28;20174;-92
2023/11/17 00:03:55;;;;;;;34.67;32.57;;;4.40;84.80;;;;;;5058309;28;20206;-91
2023/11/17 00:06:21;;;;;;;33.73;31.47;;;4.30;84.70;;;;;;5057618;28;20241;-92
2023/11/17 00:08:47;;;;;;;33.87;31.77;;;4.30;85.00;;;;;;5058769;28;20174;-94
2023/11/17 00:11:13;;;;;;;33.80;31.40;;;4.40;85.00;;;;;;5065970;28;20185;-93
2023/11/17 00:13:39;;;;;;;34.30;32.10;;;4.40;85.00;;;;;;5062121;28;20178;-93
2023/11/17 00:16:09;;;;;;;32.83;30.77;;;4.40;85.10;;;;;;5063235;28;20293;-93
2023/11/17 00:18:37;;;;;;;35.37;33.10;;;4.30;85.30;;;;;;5066768;28;20174;-93
2023/11/17 00:21:04;;;;;;;34.53;32.33;;;4.40;85.20;;;;;;5069020;28;20202;-93
2023/11/17 00:23:30;;;;;;;36.17;33.83;;;4.40;84.80;;;;;;5068470;28;20249;-92
2023/11/17 00:25:56;;;;;;;34.60;32.40;;;4.40;84.80;;;;;;5067056;28;20206;-92
2023/11/17 00:28:22;;;;;;;35.33;33.07;;;4.30;84.80;;;;;;5064053;28;20194;-94
2023/11/17 00:30:48;;;;;;;35.97;33.77;;;4.40;84.80;;;;;;5064813;28;20201;-93
2023/11/17 00:33:14;;;;;;;35.10;32.80;;;4.40;84.70;;;;;;5062308;28;20201;-93
2023/11/17 00:35:40;;;;;;;34.07;31.97;;;4.40;84.60;;;;;;5069778;28;20183;-93
2023/11/17 00:38:06;;;;;;;37.10;34.90;;;4.40;84.60;;;;;;5064183;28;20181;-92
2023/11/17 00:40:33;;;;;;;18.80;17.60;;;4.40;84.70;;;;;;5060536;28;20175;-92
2023/11/17 00:43:02;;;;;;;19.17;17.87;;;4.40;84.80;;;;;;5064230;28;20183;-92
2023/11/17 00:45:27;;;;;;;18.77;17.57;;;4.40;84.80;;;;;;5061634;28;20206;-93
2023/11/17 00:47:53;;;;;;;35.93;33.63;;;4.40;84.60;;;;;;5063180;28;20282;-92
2023/11/17 00:50:19;;;;;;;38.23;35.63;;;4.40;84.50;;;;;;5062001;28;20182;-93
2023/11/17 00:52:44;;;;;;;18.93;17.73;;;4.30;84.60;;;;;;5059791;28;20191;-92
2023/11/17 00:55:13;;;;;;;19.20;17.90;;;4.30;84.60;;;;;;5060282;28;20175;-93
2023/11/17 00:57:43;;;;;;;18.87;17.67;;;4.30;84.60;;;;;;5060629;28;20202;-92
2023/11/17 01:00:11;;;;;;;19.07;17.87;;;4.30;84.60;;;;;;5062232;28;20198;-92
2023/11/17 01:02:37;;;;;;;18.97;17.77;;;4.40;84.60;;;;;;5062184;28;20179;-93
2023/11/17 01:05:03;;;;;;;18.53;17.33;;;4.30;84.50;;;;;;5062702;28;20206;-93
2023/11/17 01:07:29;;;;;;;18.47;17.27;;;4.40;84.50;;;;;;5061707;28;20202;-93
2023/11/17 01:09:55;;;;;;;17.93;16.73;;;4.30;84.60;;;;;;5061891;28;20264;-92
2023/11/17 01:12:21;;;;;;;18.83;17.63;;;4.30;84.70;;;;;;5068552;28;20174;-92
2023/11/17 01:14:46;;;;;;;18.47;17.10;;;4.40;84.70;;;;;;5070623;28;20182;-92
2023/11/17 01:17:12;;;;;;;18.93;17.73;;;4.30;84.70;;;;;;5067930;28;20202;-92
2023/11/17 01:19:40;;;;;;;18.87;17.70;;;4.40;84.80;;;;;;5073067;28;20178;-92
2023/11/17 01:22:06;;;;;;;18.40;17.30;;;4.30;84.80;;;;;;5069317;28;20499;-89
2023/11/17 01:24:33;;;;;;;17.77;16.70;;;4.30;84.70;;;;;;5063985;28;20174;-91
2023/11/17 01:26:58;;;;;;;17.83;16.73;;;4.30;84.40;;;;;;5082267;28;20176;-90
2023/11/17 01:29:24;;;;;;;17.97;16.87;;;4.30;84.10;;;;;;5074062;28;20173;-91
2023/11/17 01:31:50;;;;;;;31.40;29.43;;;4.30;83.80;;;;;;5063654;28;20173;-92
2023/11/17 01:34:16;;;;;;;33.37;31.27;;;4.30;84.00;;;;;;5066048;28;20669;-91
2023/11/17 01:36:43;;;;;;;33.97;31.87;;;4.20;84.00;;;;;;5071197;28;20258;-93
2023/11/17 01:39:09;;;;;;;34.27;32.07;;;4.20;84.00;;;;;;5065489;28;20183;-92
2023/11/17 01:41:34;;;;;;;35.40;33.10;;;4.30;84.00;;;;;;5063202;28;20186;-94
2023/11/17 01:44:00;;;;;;;35.60;33.40;;;4.20;83.90;;;;;;5063214;28;20182;-93
2023/11/17 01:46:26;;;;;;;36.00;33.70;;;4.20;84.00;;;;;;5064974;28;20214;-92
2023/11/17 01:48:52;;;;;;;32.97;30.93;;;4.20;84.00;;;;;;5067093;28;20181;-94
2023/11/17 01:51:18;;;;;;;34.00;31.90;;;4.10;84.30;;;;;;5065817;28;20171;-94
2023/11/17 01:53:43;;;;;;;33.33;31.20;;;4.20;84.60;;;;;;5064126;28;20191;-94
2023/11/17 01:56:09;;;;;;;34.93;32.80;;;4.20;84.60;;;;;;5063998;28;20191;-93
2023/11/17 01:58:35;;;;;;;34.37;32.20;;;4.20;84.70;;;;;;5065264;28;20182;-93
2023/11/17 02:01:01;;;;;;;35.63;33.43;;;4.20;84.60;;;;;;5065100;28;20201;-93
2023/11/17 02:03:27;;;;;;;35.60;33.40;;;4.20;84.60;;;;;;5063532;28;20171;-92
2023/11/17 02:06:04;;;;;;;36.17;33.87;;;4.20;84.60;;;;;;5062781;28;20228;-93
2023/11/17 02:08:46;;;;;;;41.87;39.20;;;4.20;84.60;;;;;;5065334;28;20174;-93
2023/11/17 02:11:24;;;;;;;17.27;16.20;;;4.20;84.80;;;;;;5067041;28;20173;-93
2023/11/17 02:13:58;;;;;;;17.60;16.50;;;4.10;85.20;;;;;;5066321;28;20178;-93
2023/11/17 02:16:24;;;;;;;33.17;31.07;;;4.10;85.30;;;;;;5067323;28;20194;-92
2023/11/17 02:18:54;;;;;;;35.23;33.03;;;4.10;85.30;;;;;;5063858;28;20182;-94
2023/11/17 02:21:29;;;;;;;39.33;36.93;;;4.10;85.40;;;;;;5070456;28;20633;-92
2023/11/17 02:23:56;;;;;;;16.97;15.87;;;4.10;85.50;;;;;;5068462;28;20178;-93
2023/11/17 02:27:07;;;;;;;16.53;15.53;;;4.10;85.30;;;;;;5070302;28;20206;-94
2023/11/17 02:29:37;;;;;;;33.63;31.53;;;4.10;85.20;;;;;;5066910;28;20179;-93
2023/11/17 02:32:04;;;;;;;35.87;33.67;;;4.10;85.10;;;;;;5066857;28;20181;-93
2023/11/17 02:34:30;;;;;;;42.00;39.50;;;4.10;85.20;;;;;;5065235;28;20178;-93
2023/11/17 02:36:58;;;;;;;16.63;15.53;;;4.00;85.10;;;;;;5065435;28;20202;-93
2023/11/17 02:39:36;;;;;;;17.03;15.93;;;3.90;85.20;;;;;;5067727;28;20179;-93
2023/11/17 02:42:10;;;;;;;16.83;15.73;;;3.90;85.30;;;;;;5070233;28;20174;-94
2023/11/17 02:44:37;;;;;;;17.33;16.13;;;3.80;85.50;;;;;;5071754;28;20644;-94
2023/11/17 02:47:04;;;;;;;16.60;15.60;;;3.80;85.70;;;;;;5069497;28;20195;-93
2023/11/17 02:49:45;;;;;;;17.37;16.27;;;3.80;85.70;;;;;;5067223;28;20177;-93
2023/11/17 02:52:32;;;;;;;16.60;15.50;;;3.80;85.80;;;;;;5068647;28;20170;-93
2023/11/17 02:55:01;;;;;;;17.30;16.20;;;3.80;85.80;;;;;;5068334;28;20201;-93
2023/11/17 02:57:28;;;;;;;17.40;16.30;;;3.70;85.70;;;;;;5070497;28;20236;-93
2023/11/17 02:59:55;;;;;;;18.20;17.00;;;3.80;85.80;;;;;;5067657;28;20184;-93
2023/11/17 03:02:20;;;;;;;17.23;16.03;;;3.80;85.70;;;;;;5069375;28;20180;-93
2023/11/17 03:04:53;;;;;;;17.40;16.30;;;3.80;85.80;;;;;;5068035;28;20204;-93
2023/11/17 03:07:19;;;;;;;16.80;15.80;;;3.70;85.80;;;;;;5071389;28;20199;-93
2023/11/17 03:09:45;;;;;;;16.77;15.73;;;3.70;85.90;;;;;;5068263;28;20243;-93
2023/11/17 03:12:10;;;;;;;16.70;15.70;;;3.80;85.90;;;;;;5071318;28;20181;-95
2023/11/17 03:14:39;;;;;;;29.93;28.10;;;3.70;85.90;;;;;;5071230;28;20172;-93
2023/11/17 03:17:09;;;;;;;32.10;30.10;;;3.70;86.10;;;;;;5072823;28;20214;-93
2023/11/17 03:19:36;;;;;;;29.63;27.73;;;3.70;86.30;;;;;;5071945;28;20155;-93
2023/11/17 03:22:03;;;;;;;29.80;27.90;;;3.70;86.40;;;;;;5070019;28;20174;-93
2023/11/17 03:24:29;;;;;;;30.77;28.80;;;3.70;86.30;;;;;;5073865;28;20182;-93
2023/11/17 03:26:56;;;;;;;31.17;29.23;;;3.80;86.40;;;;;;5074144;28;20225;-94
2023/11/17 03:29:24;;;;;;;31.63;29.70;;;3.80;86.50;;;;;;5069788;28;20223;-95
2023/11/17 03:31:52;;;;;;;31.80;29.80;;;3.80;86.50;;;;;;5070960;28;20182;-94
2023/11/17 03:34:28;;;;;;;32.30;30.13;;;3.80;86.50;;;;;;5070880;28;20178;-94
2023/11/17 03:37:01;;;;;;;31.53;29.50;;;3.80;86.60;;;;;;5070214;28;20213;-93
2023/11/17 03:39:47;;;;;;;30.13;28.23;;;3.80;86.70;;;;;;5074203;28;20178;-93
2023/11/17 03:42:15;;;;;;;31.00;29.10;;;3.90;86.70;;;;;;5073571;28;20195;-95
2023/11/17 03:44:41;;;;;;;30.57;28.67;;;3.90;86.80;;;;;;5072911;28;20203;-92
2023/11/17 03:47:08;;;;;;;32.00;30.07;;;4.00;86.90;;;;;;5070914;28;20229;-93
2023/11/17 03:49:34;;;;;;;31.37;29.37;;;4.00;86.70;;;;;;5071055;28;20175;-93
2023/11/17 03:51:59;;;;;;;33.73;31.40;;;3.90;86.80;;;;;;5068266;28;20186;-93
2023/11/17 03:54:25;;;;;;;16.97;15.87;;;4.00;86.80;;;;;;5069152;28;20183;-93
2023/11/17 03:56:52;;;;;;;16.93;15.83;;;4.00;86.80;;;;;;5070352;28;20674;-92
2023/11/17 03:59:22;;;;;;;17.07;15.97;;;4.00;86.60;;;;;;5068929;28;20184;-94
2023/11/17 04:01:48;;;;;;;35.47;32.97;;;4.10;86.50;;;;;;5069939;28;20266;-93
2023/11/17 04:04:17;;;;;;;36.40;34.13;;;4.10;86.30;;;;;;5068316;28;20693;-93
2023/11/17 04:06:49;;;;;;;16.70;15.60;;;4.10;86.30;;;;;;5068663;28;20207;-92
2023/11/17 04:09:23;;;;;;;17.53;16.43;;;4.20;86.20;;;;;;5071053;28;20206;-92
2023/11/17 04:11:50;;;;;;;31.07;29.17;;;4.20;86.10;;;;;;5070653;28;20178;-93
2023/11/17 04:14:16;;;;;;;33.23;31.23;;;4.10;86.20;;;;;;5068540;28;20172;-93
2023/11/17 04:16:42;;;;;;;36.67;34.27;;;4.10;86.20;;;;;;5068274;28;20212;-93
2023/11/17 04:19:08;;;;;;;16.20;15.20;;;4.10;86.40;;;;;;5068068;28;20193;-93
2023/11/17 04:21:34;;;;;;;16.37;15.37;;;4.10;86.40;;;;;;5070200;28;20183;-94
2023/11/17 04:24:00;;;;;;;15.83;14.83;;;4.10;86.50;;;;;;5070949;28;20282;-95
2023/11/17 04:26:26;;;;;;;15.77;14.77;;;3.90;86.60;;;;;;5068565;28;20209;-94
2023/11/17 04:28:51;;;;;;;16.00;15.00;;;4.00;86.70;;;;;;5070365;28;20206;-93
2023/11/17 04:31:18;;;;;;;16.80;15.50;;;4.00;86.80;;;;;;5068645;28;20189;-93
2023/11/17 04:33:44;;;;;;;15.90;14.90;;;4.00;86.80;;;;;;5066442;28;20186;-93
2023/11/17 04:36:10;;;;;;;14.80;13.90;;;4.00;86.70;;;;;;5067405;28;20202;-93
2023/11/17 04:38:37;;;;;;;16.13;15.13;;;4.00;86.80;;;;;;5068375;28;20186;-93
2023/11/17 04:41:03;;;;;;;15.87;14.87;;;4.00;86.70;;;;;;5066828;28;20201;-95
2023/11/17 04:43:28;;;;;;;15.83;14.93;;;4.10;86.60;;;;;;5066638;28;20237;-92
2023/11/17 04:45:54;;;;;;;16.97;15.80;;;4.10;86.40;;;;;;5067772;28;20256;-94
2023/11/17 04:48:20;;;;;;;16.70;15.60;;;4.10;86.40;;;;;;5067900;28;20170;-94
2023/11/17 04:50:46;;;;;;;17.07;16.00;;;4.10;86.50;;;;;;5067189;28;20242;-91
2023/11/17 04:53:12;;;;;;;16.83;15.83;;;4.10;86.50;;;;;;5066188;28;20216;-95
2023/11/17 04:55:38;;;;;;;16.77;15.67;;;4.20;86.50;;;;;;5065901;28;20176;-93
2023/11/17 04:58:03;;;;;;;32.63;30.63;;;4.10;86.40;;;;;;5066155;28;20196;-93
2023/11/17 05:00:31;;;;;;;31.50;29.50;;;4.20;86.50;;;;;;5067463;28;20277;-94
2023/11/17 05:02:59;;;;;;;26.80;25.00;;;4.20;86.50;;;;;;5066838;28;20183;-94
2023/11/17 05:05:25;;;;;;;28.50;26.43;;;4.20;86.40;;;;;;5068951;28;20198;-93
2023/11/17 05:07:51;;;;;;;25.33;23.73;;;4.20;86.40;;;;;;5065837;28;20225;-94
2023/11/17 05:10:19;;;;;;;26.63;24.83;;;4.20;86.40;;;;;;5066945;28;20178;-93
2023/11/17 05:12:48;;;;;;;27.80;25.90;;;4.20;86.50;;;;;;5067120;28;20642;-93
2023/11/17 05:15:14;;;;;;;26.60;24.80;;;4.20;86.60;;;;;;5068850;28;20179;-93
2023/11/17 05:17:43;;;;;;;26.23;24.63;;;4.20;86.50;;;;;;5069399;28;20271;-93
2023/11/17 05:20:14;;;;;;;30.67;28.77;;;4.20;86.50;;;;;;5068776;28;20210;-93
2023/11/17 05:22:40;;;;;;;30.87;28.10;;;4.20;86.60;;;;;;5069121;28;20182;-94
2023/11/17 05:25:07;;;;;;;30.43;28.53;;;4.20;86.60;;;;;;5066345;28;20245;-93
2023/11/17 05:27:34;;;;;;;28.87;27.07;;;4.30;86.60;;;;;;5064584;28;20194;-94
2023/11/17 05:30:00;;;;;;;28.40;26.60;;;4.20;86.60;;;;;;5065664;28;20183;-93
2023/11/17 05:32:26;;;;;;;31.73;29.73;;;4.30;86.50;;;;;;5063486;28;20189;-94
2023/11/17 05:34:52;;;;;;;37.00;34.80;;;4.30;86.30;;;;;;5064037;28;20183;-91
2023/11/17 05:37:18;;;;;;;18.27;17.00;;;4.30;86.30;;;;;;5062675;28;20194;-93
2023/11/17 05:39:46;;;;;;;17.77;16.50;;;4.30;86.30;;;;;;5066304;28;20175;-94
2023/11/17 05:42:12;;;;;;;29.67;27.77;;;4.30;86.50;;;;;;5065603;28;20183;-94
2023/11/17 05:44:38;;;;;;;34.13;31.93;;;4.30;86.50;;;;;;5064452;28;20268;-94
2023/11/17 05:47:04;;;;;;;39.90;37.40;;;4.20;86.40;;;;;;5063702;28;20198;-93
2023/11/17 05:49:32;;;;;;;18.80;17.50;;;4.20;86.60;;;;;;5066485;28;20201;-94
2023/11/17 05:51:57;;;;;;;18.80;17.60;;;4.20;86.50;;;;;;5063316;28;20174;-93
2023/11/17 05:54:23;;;;;;;33.77;31.63;;;4.20;86.50;;;;;;5064565;28;20264;-93
2023/11/17 05:56:49;;;;;;;35.07;32.87;;;4.30;86.60;;;;;;5061907;28;20206;-93
2023/11/17 05:59:15;;;;;;;38.30;36.00;;;4.20;86.70;;;;;;5066216;28;20261;-93
2023/11/17 06:01:41;;;;;;;19.87;18.53;;;4.20;86.60;;;;;;5065494;28;20175;-93
2023/11/17 06:04:11;;;;;;;19.80;18.40;;;4.20;86.70;;;;;;5063701;28;20174;-93
2023/11/17 06:06:40;;;;;;;19.87;18.47;;;4.20;86.80;;;;;;5064318;28;20305;-93
2023/11/17 06:09:07;;;;;;;20.83;19.03;;;4.10;86.70;;;;;;5065311;28;20230;-93
2023/11/17 06:11:36;;;;;;;21.90;20.10;;;4.10;86.70;;;;;;5066513;28;20183;-94
2023/11/17 06:14:06;;;;;;;21.30;19.60;;;4.10;86.80;;;;;;5063496;28;20540;-93
2023/11/17 06:16:33;;;;;;;17.83;16.60;;;4.10;86.90;;;;;;5067122;28;20213;-93
2023/11/17 06:18:59;;;;;;;18.23;17.13;;;4.10;86.80;;;;;;5064955;28;20236;-94
2023/11/17 06:21:26;;;;;;;17.40;16.30;;;4.00;86.90;;;;;;5067992;28;20178;-93
2023/11/17 06:23:51;;;;;;;17.80;16.70;;;4.10;87.00;;;;;;5068216;28;20180;-94
2023/11/17 06:26:17;;;;;;;17.30;16.20;;;4.10;86.80;;;;;;5068539;28;20214;-93
2023/11/17 06:28:43;;;;;;;18.00;16.90;;;3.90;86.80;;;;;;5068003;28;20254;-93
2023/11/17 06:31:09;;;;;;;17.93;16.80;;;3.90;86.90;;;;;;5066447;28;20177;-93
2023/11/17 06:33:34;;;;;;;18.53;17.13;;;3.80;87.20;;;;;;5066959;28;20177;-94
2023/11/17 06:36:03;;;;;;;17.70;16.50;;;3.80;87.50;;;;;;5063640;28;20191;-93
2023/11/17 06:38:33;;;;;;;32.67;30.50;;;3.80;87.60;;;;;;5066601;28;20193;-93
2023/11/17 06:41:03;;;;;;;29.30;27.40;;;3.80;87.80;;;;;;5064994;28;20729;-94
2023/11/17 06:43:29;;;;;;;30.50;28.60;;;3.90;87.80;;;;;;5066700;28;20179;-93
2023/11/17 06:45:55;;;;;;;31.90;29.90;;;3.90;87.70;;;;;;5067532;28;20205;-93
2023/11/17 06:48:21;;;;;;;31.07;29.17;;;3.80;87.60;;;;;;5066817;28;20181;-93
2023/11/17 06:50:50;;;;;;;30.93;28.93;;;3.80;87.70;;;;;;5066116;28;20178;-93
2023/11/17 06:53:15;;;;;;;21.10;19.33;;;3.90;88.00;;;;;;5068820;28;20258;-92
2023/11/17 06:55:41;;;;;;;20.23;18.77;;;4.00;87.80;;;;;;5067700;28;20222;-93
2023/11/17 06:58:07;;;;;;;18.30;17.20;;;4.00;87.90;;;;;;5068145;28;20196;-93
2023/11/17 07:00:33;;;;;;;18.93;17.73;;;4.00;87.90;;;;;;5068087;28;20175;-93
2023/11/17 07:03:01;;;;;;;19.77;18.47;;;4.00;88.00;;;;;;5069134;28;20233;-93
2023/11/17 07:05:29;;;;;;;19.77;18.37;;;4.00;88.00;;;;;;5067585;28;20217;-94
2023/11/17 07:07:57;;;;;;;31.70;29.50;;;4.00;88.10;;;;;;5067806;28;20195;-93
2023/11/17 07:10:25;;;;;;;28.87;27.00;;;4.10;88.10;;;;;;5067919;28;20182;-93
2023/11/17 07:12:51;;;;;;;31.13;29.10;;;4.10;88.00;;;;;;5068515;28;20621;-93
2023/11/17 07:15:18;;;;;;;36.57;34.17;;;4.00;87.90;;;;;;5069556;28;20193;-93
2023/11/17 07:17:45;;;;;;;40.20;37.60;;;4.00;88.00;;;;;;5060325;28;20206;-93
2023/11/17 07:20:11;;;;;;;23.93;22.23;;;4.00;88.10;;;;;;5059397;28;20262;-93
2023/11/17 07:22:43;;;;;;;21.90;20.40;;;4.10;88.20;;;;;;5061881;28;20205;-93
2023/11/17 07:25:10;;;;;;;31.90;29.80;;;4.10;88.20;;;;;;5065632;28;20217;-92
2023/11/17 07:27:39;;;;;;;36.40;33.97;;;4.00;88.20;;;;;;5065129;28;20221;-92
2023/11/17 07:30:12;;;;;;;34.43;32.30;;;4.00;88.30;;;;;;5067064;28;20181;-92
2023/11/17 07:32:40;;;;;;;21.17;19.67;;;4.00;88.10;;;;;;5065409;28;20177;-91
2023/11/17 07:35:07;;;;;;;21.10;19.70;;;4.00;88.10;;;;;;5063092;28;20182;-92
2023/11/17 07:37:34;;;;;;;31.83;29.73;;;4.10;88.20;;;;;;5063398;28;20206;-94
2023/11/17 07:40:06;;;;;;;32.73;30.63;;;4.10;88.10;;;;;;5081058;28;20174;-93
2023/11/17 07:42:33;;;;;;;19.73;17.93;;;4.00;88.00;;;;;;5064710;28;20200;-93
2023/11/17 07:44:59;;;;;;;19.30;18.00;;;4.00;88.20;;;;;;5063142;28;20248;-92
2023/11/17 07:47:24;;;;;;;18.70;17.50;;;3.90;88.00;;;;;;5064420;28;20221;-93
2023/11/17 07:49:54;;;;;;;18.70;17.50;;;4.00;88.10;;;;;;5064728;28;20171;-93
2023/11/17 07:52:21;;;;;;;18.93;17.73;;;4.00;88.10;;;;;;5061837;28;20235;-91
2023/11/17 07:54:47;;;;;;;19.47;18.17;;;4.10;88.20;;;;;;5062755;28;20186;-92
2023/11/17 07:57:12;;;;;;;18.57;17.37;;;4.20;88.30;;;;;;5063554;28;20195;-93
2023/11/17 07:59:40;;;;;;;18.13;16.83;;;4.30;88.20;;;;;;5061207;28;20177;-92
2023/11/17 08:02:06;;;;;;;18.87;17.33;;;4.40;88.30;;;;;;5060224;28;20177;-93
2023/11/17 08:04:32;;;;;;;19.30;18.00;;;4.40;88.20;;;;;;5061214;28;20175;-92
2023/11/17 08:06:57;;;;;;;18.80;17.57;;;4.40;88.20;;;;;;5061210;28;20685;-92
2023/11/17 08:09:23;;;;;;;19.13;17.67;;;4.40;88.20;;;;;;5061521;28;20175;-92
2023/11/17 08:11:48;;;;;;;18.77;17.57;;;4.50;88.10;;;;;;5062067;28;20187;-93
2023/11/17 08:14:15;;;;;;;18.33;17.13;;;4.50;88.10;;;;;;5062218;28;20179;-93
2023/11/17 08:16:40;;;;;;;17.90;16.80;;;4.50;88.10;;;;;;5061717;28;20669;-92
2023/11/17 08:19:08;;;;;;;19.10;17.90;;;4.50;88.10;;;;;;5061555;28;20191;-93
2023/11/17 08:21:34;;;;;;;31.53;29.53;;;4.50;87.90;;;;;;5061248;28;20175;-92
2023/11/17 08:23:59;;;;;;;32.47;30.17;;;4.50;87.90;;;;;;5060986;28;20211;-92
2023/11/17 08:26:31;;;;;;;33.03;30.77;;;4.50;87.90;;;;;;5059979;28;20695;-92
2023/11/17 08:28:56;;;;;;;32.73;30.43;;;4.60;88.10;;;;;;5060490;28;20174;-91
2023/11/17 08:31:22;;;;;;;33.73;31.20;;;4.60;87.90;;;;;;5060031;28;20174;-92
2023/11/17 08:33:47;;;;;;;32.40;30.23;;;4.70;88.00;;;;;;5059358;28;20217;-92
2023/11/17 08:36:13;;;;;;;31.27;29.17;;;4.70;87.80;;;;;;5059905;28;20195;-92
2023/11/17 08:38:42;;;;;;;31.47;29.53;;;4.70;87.80;;;;;;5059952;28;20190;-92
2023/11/17 08:41:10;;;;;;;32.07;30.07;;;4.80;87.80;;;;;;5062045;28;20174;-92
2023/11/17 08:43:37;;;;;;;31.13;29.17;;;4.80;87.80;;;;;;5061226;28;20527;-92
2023/11/17 08:46:06;;;;;;;32.77;30.47;;;4.80;87.90;;;;;;5059756;28;20654;-92
2023/11/17 08:48:33;;;;;;;32.73;30.57;;;4.80;87.90;;;;;;5060712;28;20174;-93
2023/11/17 08:50:59;;;;;;;31.63;29.63;;;4.80;87.80;;;;;;5059324;28;20266;-92
2023/11/17 08:53:24;;;;;;;32.90;30.70;;;4.90;87.70;;;;;;5059199;28;20262;-92
2023/11/17 08:55:50;;;;;;;30.83;28.73;;;4.90;87.50;;;;;;5058258;28;20670;-93
2023/11/17 08:58:16;;;;;;;32.43;30.43;;;4.90;87.60;;;;;;5058864;28;20182;-93
2023/11/17 09:00:41;;;;;;;35.00;32.87;;;4.90;87.60;;;;;;5059925;28;20269;-93
2023/11/17 09:03:07;;;;;;;18.50;17.30;;;4.90;87.70;;;;;;5060483;28;20715;-92
2023/11/17 09:05:33;;;;;;;19.83;18.53;;;4.90;87.70;;;;;;5059588;28;20660;-93
2023/11/17 09:07:59;;;;;;;33.50;31.10;;;4.90;87.70;;;;;;5064574;28;20195;-93
2023/11/17 09:10:26;;;;;;;32.87;30.57;;;5.00;87.70;;;;;;5063834;28;20210;-93
2023/11/17 09:12:53;;;;;;;36.57;34.07;;;5.00;87.70;;;;;;5064863;28;20212;-93
2023/11/17 09:15:23;;;;;;;19.63;18.33;;;5.00;87.60;;;;;;5064737;28;20178;-93
2023/11/17 09:17:52;;;;;;;18.90;17.70;;;5.00;87.50;;;;;;5062982;28;20199;-93
2023/11/17 09:20:21;;;;;;;32.03;30.03;;;5.10;87.40;;;;;;5066236;28;20172;-93
2023/11/17 09:22:47;;;;;;;33.27;31.17;;;5.10;87.40;;;;;;5079817;28;20160;-90
2023/11/17 09:25:15;;;;;;;38.83;36.30;;;5.10;87.30;;;;;;5083163;28;20322;-92
2023/11/17 09:27:43;;;;;;;19.53;18.23;;;5.20;87.10;;;;;;5077639;28;20171;-92
2023/11/17 09:30:12;;;;;;;21.40;19.80;;;5.10;87.10;;;;;;5081147;28;20206;-94
2023/11/17 09:32:49;;;;;;;19.77;18.47;;;5.20;87.10;;;;;;5082185;28;20191;-93
2023/11/17 09:35:16;;;;;;;19.40;18.20;;;5.20;86.90;;;;;;5082372;28;20187;-92
2023/11/17 09:37:58;;;;;;;19.77;18.33;;;5.20;86.80;;;;;;5082138;28;20183;-94
2023/11/17 09:40:26;;;;;;;19.37;17.93;;;5.20;86.70;;;;;;5082284;28;20163;-93
2023/11/17 09:42:55;;;;;;;19.80;18.50;;;5.20;86.60;;;;;;5081428;28;20234;-93
2023/11/17 09:45:24;;;;;;;19.70;18.40;;;5.20;86.60;;;;;;5081767;28;20199;-95
2023/11/17 09:47:55;;;;;;;20.27;18.87;;;5.20;86.20;;;;;;5081918;28;20189;-94
2023/11/17 09:50:22;;;;;;;20.50;19.10;;;5.20;86.20;;;;;;5072583;28;20179;-91
2023/11/17 09:52:49;;;;;;;20.00;18.63;;;5.30;86.20;;;;;;5056829;28;20202;-92
2023/11/17 09:55:16;;;;;;;19.97;18.70;;;5.30;86.10;;;;;;5062315;28;20716;-92
2023/11/17 09:57:47;;;;;;;20.33;19.00;;;5.30;85.80;;;;;;5077202;28;20214;-93
2023/11/17 10:00:18;;;;;;;20.73;19.23;;;5.30;85.90;;;;;;5081661;28;20182;-93
2023/11/17 10:02:55;;;;;;;19.00;17.80;;;5.30;85.80;;;;;;5081870;28;20223;-93
2023/11/17 10:05:26;;;;;;;19.93;18.47;;;5.30;85.60;;;;;;5079545;28;20186;-92
2023/11/17 10:07:55;;;;;;;27.80;25.73;;;5.40;85.20;;;;;;5080947;28;20642;-90
2023/11/17 10:10:22;;;;;;;28.20;26.40;;;5.40;85.10;;;;;;5073657;28;20194;-92
2023/11/17 10:12:49;;;;;;;30.17;28.23;;;5.40;85.30;;;;;;5078121;28;20242;-94
2023/11/17 10:15:18;;;;;;;29.10;27.23;;;5.40;85.10;;;;;;5079915;28;20270;-93
2023/11/17 10:17:47;;;;;;;30.73;28.83;;;5.40;84.80;;;;;;5073458;28;20207;-93
2023/11/17 10:20:17;;;;;;;30.50;28.40;;;5.40;85.00;;;;;;5080737;28;20163;-92
2023/11/17 10:22:50;;;;;;;28.33;26.50;;;5.50;84.80;;;;;;5079302;28;20151;-93
2023/11/17 10:25:24;;;;;;;30.20;28.17;;;5.50;84.70;;;;;;5080391;28;20229;-94
2023/11/17 10:27:51;;;;;;;30.03;28.10;;;5.50;84.60;;;;;;5072704;28;20231;-94
2023/11/17 10:30:17;;;;;;;29.47;27.57;;;5.40;84.40;;;;;;5075058;28;20179;-90
2023/11/17 10:32:52;;;;;;;31.50;29.40;;;5.50;84.30;;;;;;5056292;28;20172;-90
2023/11/17 10:35:31;;;;;;;30.67;28.70;;;5.50;84.50;;;;;;5056292;28;20171;-91
2023/11/17 10:37:58;;;;;;;29.90;28.00;;;5.60;84.40;;;;;;5057019;28;20202;-90
2023/11/17 10:40:31;;;;;;;31.70;29.70;;;5.60;84.50;;;;;;5074792;28;20175;-92
2023/11/17 10:43:15;;;;;;;29.70;27.73;;;5.50;84.00;;;;;;5056039;28;20179;-91
2023/11/17 10:45:43;;;;;;;33.17;30.97;;;5.50;84.10;;;;;;5056256;28;20199;-90
2023/11/17 10:48:18;;;;;;;37.07;34.67;;;5.50;84.00;;;;;;5056412;28;20179;-92
2023/11/17 10:50:44;;;;;;;20.03;18.63;;;5.60;84.20;;;;;;5056630;28;20178;-92
2023/11/17 10:53:19;;;;;;;18.90;17.70;;;5.40;83.80;;;;;;5055985;28;20226;-92
2023/11/17 10:55:46;;;;;;;31.23;28.97;;;5.40;84.50;;;;;;5055581;28;20183;-91
2023/11/17 10:58:15;;;;;;;32.83;30.67;;;5.50;84.70;;;;;;5056112;28;20183;-91
2023/11/17 11:00:51;;;;;;;36.10;33.80;;;5.60;84.80;;;;;;5055963;28;20175;-91
2023/11/17 11:03:18;;;;;;;18.97;17.77;;;5.70;84.70;;;;;;5055918;28;20171;-91
2023/11/17 11:05:46;;;;;;;19.70;18.37;;;5.70;84.20;;;;;;5055954;28;20207;-92
2023/11/17 11:08:17;;;;;;;30.17;28.27;;;5.70;84.00;;;;;;5056501;28;20171;-93
2023/11/17 11:10:57;;;;;;;22.60;21.00;;;5.80;84.00;;;;;;5055993;28;20249;-92
2023/11/17 11:13:23;;;;;;;20.07;18.73;;;5.80;83.90;;;;;;5055956;28;20643;-93
2023/11/17 11:16:10;;;;;;;19.00;17.73;;;5.80;83.80;;;;;;5056165;28;20175;-92
2023/11/17 11:18:45;;;;;;;19.13;17.93;;;5.70;83.70;;;;;;5055798;28;20270;-93
2023/11/17 11:21:12;;;;;;;20.40;18.57;;;5.80;83.80;;;;;;5056119;28;20171;-92
2023/11/17 11:23:39;;;;;;;19.67;18.13;;;5.80;83.90;;;;;;5055848;28;20199;-91
2023/11/17 11:26:05;;;;;;;19.77;18.47;;;5.80;83.80;;;;;;5055527;28;20262;-92
2023/11/17 11:28:32;;;;;;;19.70;18.40;;;5.80;83.50;;;;;;5056012;28;20721;-91
2023/11/17 11:31:01;;;;;;;20.13;18.73;;;5.70;83.30;;;;;;5056231;28;20183;-92
2023/11/17 11:33:30;;;;;;;19.80;18.40;;;5.70;83.10;;;;;;5056103;28;20167;-93
2023/11/17 11:35:57;;;;;;;19.70;18.40;;;5.70;83.20;;;;;;5057873;28;20639;-92
2023/11/17 11:38:24;;;;;;;19.40;18.20;;;5.70;82.90;;;;;;5059613;28;20175;-91
2023/11/17 11:40:52;;;;;;;19.77;18.47;;;5.70;83.30;;;;;;5060389;28;20183;-91
2023/11/17 11:43:20;;;;;;;19.70;18.40;;;5.60;83.20;;;;;;5060430;28;20175;-91
2023/11/17 11:45:49;;;;;;;19.30;18.00;;;5.40;83.10;;;;;;5059298;28;20572;-92
2023/11/17 11:48:20;;;;;;;18.90;17.70;;;5.50;83.60;;;;;;5060082;28;20254;-92
2023/11/17 11:50:48;;;;;;;20.37;18.97;;;5.50;83.40;;;;;;5077111;28;20148;-92
2023/11/17 11:53:53;;;;;;;32.53;30.37;;;5.50;83.30;;;;;;5058834;28;20203;-92
2023/11/17 11:56:21;;;;;;;33.00;30.80;;;5.50;83.20;;;;;;5059079;28;20203;-92
2023/11/17 11:58:49;;;;;;;33.93;31.73;;;5.50;83.20;;;;;;5059780;28;20183;-91
2023/11/17 12:01:19;;;;;;;31.13;29.13;;;5.50;83.40;;;;;;5060632;28;20273;-92
2023/11/17 12:03:51;;;;;;;33.30;31.10;;;5.30;83.30;;;;;;5061330;28;20252;-92
2023/11/17 12:06:24;;;;;;;34.20;32.00;;;5.20;83.60;;;;;;5060039;28;20219;-91
2023/11/17 12:09:16;;;;;;;35.27;32.97;;;5.30;84.00;;;;;;5061283;28;20186;-92
2023/11/17 12:11:52;;;;;;;32.37;30.27;;;5.20;84.00;;;;;;5060076;28;20191;-92
2023/11/17 12:14:29;;;;;;;30.17;28.07;;;5.20;84.50;;;;;;5059891;28;20202;-92
2023/11/17 12:16:57;;;;;;;30.80;28.67;;;5.30;84.70;;;;;;5060743;28;20231;-92
2023/11/17 12:19:30;;;;;;;29.77;27.87;;;5.30;84.80;;;;;;5060467;28;20199;-93
2023/11/17 12:22:03;;;;;;;29.10;27.20;;;5.30;84.60;;;;;;5060557;28;20183;-92
2023/11/17 12:24:30;;;;;;;28.23;26.43;;;5.30;84.70;;;;;;5059047;28;20171;-91
2023/11/17 12:26:56;;;;;;;30.70;28.70;;;5.40;84.50;;;;;;5058670;28;20211;-92
2023/11/17 12:29:25;;;;;;;30.57;28.53;;;5.40;83.90;;;;;;5059005;28;20186;-92
2023/11/17 12:31:52;;;;;;;30.87;28.77;;;5.30;83.80;;;;;;5059253;28;20175;-92
2023/11/17 12:34:18;;;;;;;33.73;31.53;;;5.40;83.60;;;;;;5058942;28;20233;-90
2023/11/17 12:36:47;;;;;;;34.67;32.37;;;5.50;83.50;;;;;;5058481;28;20238;-90
2023/11/17 12:39:19;;;;;;;21.47;20.07;;;5.50;83.10;;;;;;5058770;28;20274;-92
2023/11/17 12:41:45;;;;;;;20.97;19.67;;;5.60;83.00;;;;;;5058378;28;20178;-92